Time;durP1;ratioP1;P1;durP2;ratioP2;P2;SDS_P1;SDS_P2;PMS_P1;PMS_P2;Temp;Humidity;BMP_temperature;BMP_pressure;BME280_temperature;BME280_humidity;BME280_pressure;Samples;Min_cycle;Max_cycle;Signal;HPM_P1;HPM_P2
2021/06/23 00:00:15;;;;;;;25.15;7.05;;;;;;;;;;5096525;28;20028;-83
2021/06/23 00:02:41;;;;;;;19.77;7.13;;;;;;;;;;5096697;28;20016;-89
2021/06/23 00:05:07;;;;;;;21.95;7.20;;;;;;;;;;5096615;28;20057;-81
2021/06/23 00:07:33;;;;;;;19.90;8.15;;;;;;;;;;5096295;28;20028;-86
2021/06/23 00:09:59;;;;;;;21.90;7.20;;;;;;;;;;5096548;28;20024;-83
2021/06/23 00:12:29;;;;;;;23.20;7.30;;;;;;;;;;5096397;28;20376;-86
2021/06/23 00:14:55;;;;;;;24.45;7.82;;;;;;;;;;5096341;28;20890;-85
2021/06/23 00:17:21;;;;;;;26.42;7.60;;;;;;;;;;5095900;28;20029;-83
2021/06/23 00:19:47;;;;;;;21.60;6.38;;;;;;;;;;5096215;28;20074;-85
2021/06/23 00:22:14;;;;;;;24.05;6.57;;;;;;;;;;5096142;28;20026;-83
2021/06/23 00:24:40;;;;;;;22.35;8.00;;;;;;;;;;5096148;28;20024;-83
2021/06/23 00:27:06;;;;;;;20.13;8.48;;;;;;;;;;5096049;28;20035;-85
2021/06/23 00:29:33;;;;;;;23.25;8.10;;;;;;;;;;5095834;28;20044;-87
2021/06/23 00:31:59;;;;;;;20.00;7.32;;;;;;;;;;5096154;28;20024;-86
2021/06/23 00:34:26;;;;;;;18.58;7.50;;;;;;;;;;5095775;28;20077;-80
2021/06/23 00:36:52;;;;;;;18.65;7.43;;;;;;;;;;5095859;28;20028;-81
2021/06/23 00:39:19;;;;;;;23.63;7.97;;;;;;;;;;5095913;28;20020;-83
2021/06/23 00:41:45;;;;;;;25.65;8.23;;;;;;;;;;5077644;28;20032;-84
2021/06/23 00:44:12;;;;;;;19.08;7.07;;;;;;;;;;5095682;28;20032;-85
2021/06/23 00:46:39;;;;;;;18.60;7.85;;;;;;;;;;5095606;28;20455;-89
2021/06/23 00:49:05;;;;;;;19.48;6.85;;;;;;;;;;5095665;28;20020;-83
2021/06/23 00:51:31;;;;;;;17.85;7.60;;;;;;;;;;5095525;28;20024;-81
2021/06/23 00:53:57;;;;;;;22.38;9.13;;;;;;;;;;5077537;28;20024;-84
2021/06/23 00:56:31;;;;;;;18.88;8.77;;;;;;;;;;5095731;28;20020;-84
2021/06/23 00:58:57;;;;;;;18.67;7.60;;;;;;;;;;5095524;28;20051;-84
2021/06/23 01:01:23;;;;;;;19.83;7.95;;;;;;;;;;5095364;28;20020;-83
2021/06/23 01:03:50;;;;;;;17.15;8.40;;;;;;;;;;5095553;28;20519;-87
2021/06/23 01:06:16;;;;;;;18.02;7.18;;;;;;;;;;5095384;28;20463;-86
2021/06/23 01:08:42;;;;;;;18.50;8.63;;;;;;;;;;5095214;28;20054;-83
2021/06/23 01:11:08;;;;;;;17.60;7.93;;;;;;;;;;5076952;28;20028;-82
2021/06/23 01:13:36;;;;;;;22.35;8.35;;;;;;;;;;5095053;28;20024;-83
2021/06/23 01:16:04;;;;;;;24.17;8.43;;;;;;;;;;5095295;28;20028;-83
2021/06/23 01:18:33;;;;;;;14.85;8.07;;;;;;;;;;5095080;28;20051;-85
2021/06/23 01:21:00;;;;;;;17.73;8.55;;;;;;;;;;5095196;28;20058;-83
2021/06/23 01:23:26;;;;;;;18.13;8.02;;;;;;;;;;5095032;28;20020;-85
2021/06/23 01:25:52;;;;;;;17.50;8.88;;;;;;;;;;5076822;28;20028;-83
2021/06/23 01:28:19;;;;;;;21.08;8.43;;;;;;;;;;5094600;28;20020;-83
2021/06/23 01:30:45;;;;;;;19.38;9.30;;;;;;;;;;5094752;28;20073;-84
2021/06/23 01:33:13;;;;;;;18.88;8.25;;;;;;;;;;5094932;28;20020;-83
2021/06/23 01:35:39;;;;;;;15.27;8.52;;;;;;;;;;5094617;28;20494;-87
2021/06/23 01:38:05;;;;;;;17.30;9.77;;;;;;;;;;5094703;28;20032;-85
2021/06/23 01:40:32;;;;;;;17.50;9.40;;;;;;;;;;5094487;28;20028;-84
2021/06/23 01:42:58;;;;;;;22.88;8.55;;;;;;;;;;5094899;28;20024;-89
2021/06/23 01:45:27;;;;;;;18.63;8.30;;;;;;;;;;5076523;28;20024;-81
2021/06/23 01:47:53;;;;;;;15.50;7.22;;;;;;;;;;5094793;28;20099;-88
2021/06/23 01:50:21;;;;;;;18.48;8.10;;;;;;;;;;5094469;28;20027;-87
2021/06/23 01:52:47;;;;;;;20.75;7.15;;;;;;;;;;5094347;28;20020;-88
2021/06/23 01:57:59;;;;;;;20.83;8.07;;;;;;;;;;5094626;28;20039;-85
2021/06/23 02:00:30;;;;;;;20.85;7.93;;;;;;;;;;5075922;28;20020;-86
2021/06/23 02:02:58;;;;;;;18.63;7.80;;;;;;;;;;5094347;28;20034;-86
2021/06/23 02:05:25;;;;;;;20.48;8.93;;;;;;;;;;5094193;28;20501;-83
2021/06/23 02:07:57;;;;;;;27.35;12.77;;;;;;;;;;5094540;28;20074;-85
2021/06/23 02:10:32;;;;;;;20.58;8.40;;;;;;;;;;5094088;28;20467;-89
2021/06/23 02:13:17;;;;;;;17.80;7.22;;;;;;;;;;5093529;28;20031;-84
2021/06/23 02:15:44;;;;;;;23.23;9.48;;;;;;;;;;5093970;28;20103;-80
2021/06/23 02:18:11;;;;;;;21.73;7.63;;;;;;;;;;5093867;28;20035;-86
2021/06/23 02:20:37;;;;;;;23.58;8.60;;;;;;;;;;5093978;28;20016;-87
2021/06/23 02:23:07;;;;;;;18.73;8.60;;;;;;;;;;5093625;28;20382;-83
2021/06/23 02:25:34;;;;;;;21.38;8.52;;;;;;;;;;5094045;28;20429;-82
2021/06/23 02:28:00;;;;;;;19.55;8.05;;;;;;;;;;5093683;28;20032;-84
2021/06/23 02:30:27;;;;;;;17.33;7.75;;;;;;;;;;5093580;28;20402;-80
2021/06/23 02:32:56;;;;;;;18.60;8.30;;;;;;;;;;5093739;28;20380;-84
2021/06/23 02:35:29;;;;;;;17.67;8.90;;;;;;;;;;5093792;28;20034;-86
2021/06/23 02:37:55;;;;;;;19.42;8.50;;;;;;;;;;5093428;28;20073;-83
2021/06/23 02:40:22;;;;;;;23.42;8.55;;;;;;;;;;5093453;28;20111;-83
2021/06/23 02:42:49;;;;;;;21.95;10.43;;;;;;;;;;5093407;28;20020;-85
2021/06/23 02:45:15;;;;;;;18.52;9.55;;;;;;;;;;5093518;28;20077;-85
2021/06/23 02:47:41;;;;;;;16.38;8.90;;;;;;;;;;5093440;28;20016;-86
2021/06/23 02:50:08;;;;;;;18.48;9.32;;;;;;;;;;5093398;28;20031;-86
2021/06/23 02:52:35;;;;;;;14.50;7.68;;;;;;;;;;5093627;28;20095;-82
2021/06/23 02:55:05;;;;;;;14.68;7.30;;;;;;;;;;5093357;28;20031;-84
2021/06/23 02:57:32;;;;;;;21.33;8.55;;;;;;;;;;5075032;28;20020;-86
2021/06/23 02:59:59;;;;;;;16.95;8.40;;;;;;;;;;5093217;28;20028;-84
2021/06/23 03:02:25;;;;;;;16.55;8.57;;;;;;;;;;5093300;28;20020;-84
2021/06/23 03:04:51;;;;;;;18.83;7.97;;;;;;;;;;5093220;28;20379;-85
2021/06/23 03:07:17;;;;;;;15.70;8.55;;;;;;;;;;5074936;28;20365;-84
2021/06/23 03:09:44;;;;;;;18.00;7.78;;;;;;;;;;5093149;28;20039;-85
2021/06/23 03:12:11;;;;;;;18.55;7.90;;;;;;;;;;5074740;28;20418;-86
2021/06/23 03:14:38;;;;;;;19.42;7.57;;;;;;;;;;5093038;28;20020;-85
2021/06/23 03:17:04;;;;;;;19.67;8.50;;;;;;;;;;5093042;28;20020;-83
2021/06/23 03:19:30;;;;;;;21.80;9.60;;;;;;;;;;5092919;28;20040;-89
2021/06/23 03:21:56;;;;;;;23.83;9.15;;;;;;;;;;5092775;28;20403;-85
2021/06/23 03:24:22;;;;;;;18.20;8.32;;;;;;;;;;5092167;28;20024;-84
2021/06/23 03:26:49;;;;;;;16.98;9.27;;;;;;;;;;5092989;28;20050;-81
2021/06/23 03:29:24;;;;;;;18.48;8.48;;;;;;;;;;5092598;28;20047;-83
2021/06/23 03:31:50;;;;;;;19.02;7.75;;;;;;;;;;5092669;28;20016;-80
2021/06/23 03:34:16;;;;;;;23.95;8.35;;;;;;;;;;5092588;28;20048;-84
2021/06/23 03:36:42;;;;;;;19.70;8.98;;;;;;;;;;5092462;28;20024;-82
2021/06/23 03:39:08;;;;;;;19.17;8.95;;;;;;;;;;5092564;28;20032;-85
2021/06/23 03:41:34;;;;;;;23.27;9.23;;;;;;;;;;5092607;28;20020;-81
2021/06/23 03:44:01;;;;;;;20.33;9.52;;;;;;;;;;5092573;28;20103;-83
2021/06/23 03:46:27;;;;;;;23.83;9.20;;;;;;;;;;5074819;28;20028;-87
2021/06/23 03:48:56;;;;;;;17.92;9.15;;;;;;;;;;5092494;28;20134;-87
2021/06/23 03:51:22;;;;;;;20.80;9.30;;;;;;;;;;5092765;28;20074;-83
2021/06/23 03:53:48;;;;;;;18.63;8.98;;;;;;;;;;5092382;28;20048;-83
2021/06/23 03:56:14;;;;;;;23.13;8.82;;;;;;;;;;5092594;28;20020;-85
2021/06/23 03:58:42;;;;;;;21.13;8.27;;;;;;;;;;5092461;28;20036;-84
2021/06/23 04:01:08;;;;;;;21.95;9.60;;;;;;;;;;5092491;28;20021;-82
2021/06/23 04:03:35;;;;;;;23.23;10.07;;;;;;;;;;5092533;28;20021;-85
2021/06/23 04:06:01;;;;;;;21.05;8.25;;;;;;;;;;5092349;28;20042;-82
2021/06/23 04:08:27;;;;;;;20.40;8.23;;;;;;;;;;5074512;28;20036;-89
2021/06/23 04:10:53;;;;;;;19.63;7.78;;;;;;;;;;5092067;28;20378;-80
2021/06/23 04:13:19;;;;;;;22.08;8.30;;;;;;;;;;5092183;28;20034;-82
2021/06/23 04:15:45;;;;;;;23.73;9.75;;;;;;;;;;5092212;28;20423;-83
2021/06/23 04:18:11;;;;;;;24.13;9.52;;;;;;;;;;5092298;28;20020;-87
2021/06/23 04:20:38;;;;;;;29.13;10.23;;;;;;;;;;5092303;28;20052;-88
2021/06/23 04:23:04;;;;;;;49.03;35.38;;;;;;;;;;5092085;28;20027;-90
2021/06/23 04:25:30;;;;;;;23.05;9.48;;;;;;;;;;5074189;28;20029;-86
2021/06/23 04:27:56;;;;;;;25.55;8.95;;;;;;;;;;5092216;28;20077;-87
2021/06/23 04:30:23;;;;;;;23.90;8.80;;;;;;;;;;5092014;28;20121;-85
2021/06/23 04:32:49;;;;;;;20.42;8.57;;;;;;;;;;5092294;28;20486;-80
2021/06/23 04:35:15;;;;;;;20.63;8.27;;;;;;;;;;5092961;28;20032;-82
2021/06/23 04:37:42;;;;;;;26.17;9.75;;;;;;;;;;5095716;28;20500;-83
2021/06/23 04:40:10;;;;;;;23.23;8.95;;;;;;;;;;5095521;28;20065;-80
2021/06/23 04:42:37;;;;;;;24.20;9.18;;;;;;;;;;5098395;28;20024;-81
2021/06/23 04:45:07;;;;;;;54.67;37.63;;;;;;;;;;5097107;28;20099;-86
2021/06/23 04:47:34;;;;;;;30.27;13.95;;;;;;;;;;5097333;28;20475;-84
2021/06/23 04:50:00;;;;;;;45.65;31.60;;;;;;;;;;5095337;28;20036;-83
2021/06/23 04:52:26;;;;;;;75.10;56.17;;;;;;;;;;5095532;28;20032;-78
2021/06/23 04:54:52;;;;;;;27.20;13.35;;;;;;;;;;5095503;28;20424;-80
2021/06/23 04:57:18;;;;;;;21.85;9.20;;;;;;;;;;5095170;28;20023;-78
2021/06/23 04:59:45;;;;;;;19.65;9.30;;;;;;;;;;5110893;27;20019;-84
2021/06/23 05:02:12;;;;;;;23.15;9.23;;;;;;;;;;5120315;27;20032;-83
2021/06/23 05:04:38;;;;;;;22.05;8.38;;;;;;;;;;5115637;28;20410;-84
2021/06/23 05:07:07;;;;;;;21.38;8.85;;;;;;;;;;5115515;28;20020;-80
2021/06/23 05:09:33;;;;;;;20.55;9.35;;;;;;;;;;5124894;27;20098;-82
2021/06/23 05:11:59;;;;;;;25.02;8.00;;;;;;;;;;5136081;27;20073;-79
2021/06/23 05:14:25;;;;;;;27.55;8.90;;;;;;;;;;5135970;27;20023;-81
2021/06/23 05:16:52;;;;;;;27.30;8.60;;;;;;;;;;5136098;27;20020;-81
2021/06/23 05:19:37;;;;;;;25.77;8.98;;;;;;;;;;5135653;27;20398;-82
2021/06/23 05:22:04;;;;;;;24.05;8.45;;;;;;;;;;5135855;27;20389;-80
2021/06/23 05:24:33;;;;;;;21.63;9.00;;;;;;;;;;5135515;27;20094;-76
2021/06/23 05:26:59;;;;;;;25.63;8.15;;;;;;;;;;5130547;27;20358;-83
2021/06/23 05:29:26;;;;;;;24.30;8.57;;;;;;;;;;5110225;28;20054;-84
2021/06/23 05:31:52;;;;;;;17.35;8.07;;;;;;;;;;5113960;28;20030;-82
2021/06/23 05:34:18;;;;;;;20.55;8.00;;;;;;;;;;5114040;28;20355;-85
2021/06/23 05:36:44;;;;;;;18.42;8.20;;;;;;;;;;5116464;27;20473;-83
2021/06/23 05:39:10;;;;;;;19.88;8.15;;;;;;;;;;5121826;27;20055;-81
2021/06/23 05:41:36;;;;;;;23.50;8.30;;;;;;;;;;5125508;27;20042;-83
2021/06/23 05:44:05;;;;;;;21.52;7.78;;;;;;;;;;5134565;27;20023;-83
2021/06/23 05:46:31;;;;;;;18.13;8.73;;;;;;;;;;5112876;27;20059;-84
2021/06/23 05:48:57;;;;;;;21.42;8.20;;;;;;;;;;5094791;28;20104;-79
2021/06/23 05:51:23;;;;;;;25.73;9.80;;;;;;;;;;5120016;27;20069;-79
2021/06/23 05:53:50;;;;;;;20.70;7.63;;;;;;;;;;5113518;28;20501;-80
2021/06/23 05:56:16;;;;;;;21.55;7.40;;;;;;;;;;5113596;28;20049;-83
2021/06/23 05:58:42;;;;;;;24.42;8.13;;;;;;;;;;5112953;28;20030;-83
2021/06/23 06:01:08;;;;;;;20.02;8.27;;;;;;;;;;5119171;27;20467;-81
2021/06/23 06:03:35;;;;;;;20.33;8.10;;;;;;;;;;5112885;28;20627;-84
2021/06/23 06:06:02;;;;;;;20.23;8.20;;;;;;;;;;5126906;27;20417;-84
2021/06/23 06:08:29;;;;;;;20.98;10.38;;;;;;;;;;5133705;27;20034;-81
2021/06/23 06:10:55;;;;;;;18.75;7.35;;;;;;;;;;5133445;27;20106;-83
2021/06/23 06:13:22;;;;;;;25.05;8.02;;;;;;;;;;5133499;27;20023;-83
2021/06/23 06:15:48;;;;;;;20.38;9.05;;;;;;;;;;5133772;27;20030;-81
2021/06/23 06:18:14;;;;;;;22.40;8.38;;;;;;;;;;5133630;27;20031;-81
2021/06/23 06:20:40;;;;;;;20.98;8.63;;;;;;;;;;5114779;27;20035;-80
2021/06/23 06:23:06;;;;;;;18.85;7.60;;;;;;;;;;5115432;27;20489;-81
2021/06/23 06:25:33;;;;;;;18.45;8.30;;;;;;;;;;5118311;27;20401;-82
2021/06/23 06:27:59;;;;;;;19.73;7.88;;;;;;;;;;5112800;28;20050;-80
2021/06/23 06:30:26;;;;;;;22.52;8.40;;;;;;;;;;5112515;28;20501;-80
2021/06/23 06:32:52;;;;;;;18.17;7.57;;;;;;;;;;5112768;28;20019;-83
2021/06/23 06:35:18;;;;;;;17.95;9.15;;;;;;;;;;5112602;28;20019;-82
2021/06/23 06:37:45;;;;;;;24.92;9.45;;;;;;;;;;5112439;28;20028;-83
2021/06/23 06:40:12;;;;;;;23.90;11.00;;;;;;;;;;5111559;28;20049;-82
2021/06/23 06:42:38;;;;;;;18.85;9.57;;;;;;;;;;5109945;28;20016;-81
2021/06/23 06:45:05;;;;;;;23.83;8.52;;;;;;;;;;5112481;28;20077;-82
2021/06/23 06:47:31;;;;;;;18.08;7.25;;;;;;;;;;5102747;28;20149;-81
2021/06/23 06:49:57;;;;;;;26.63;8.57;;;;;;;;;;5092013;28;20028;-81
2021/06/23 06:52:23;;;;;;;15.02;8.32;;;;;;;;;;5092009;28;20028;-81
2021/06/23 06:54:49;;;;;;;21.80;8.27;;;;;;;;;;5092154;28;20028;-81
2021/06/23 06:57:16;;;;;;;22.27;8.23;;;;;;;;;;5092079;28;20024;-79
2021/06/23 06:59:42;;;;;;;18.75;9.05;;;;;;;;;;5091754;28;20028;-83
2021/06/23 07:02:08;;;;;;;22.83;8.43;;;;;;;;;;5092042;28;20012;-83
2021/06/23 07:04:34;;;;;;;27.92;9.55;;;;;;;;;;5091963;28;20020;-83
2021/06/23 07:07:00;;;;;;;28.20;9.35;;;;;;;;;;5091833;28;20523;-82
2021/06/23 07:09:26;;;;;;;23.65;8.82;;;;;;;;;;5092286;28;20433;-81
2021/06/23 07:11:52;;;;;;;22.38;8.30;;;;;;;;;;5091693;28;20020;-82
2021/06/23 07:14:20;;;;;;;22.17;8.93;;;;;;;;;;5091955;28;20510;-82
2021/06/23 07:16:46;;;;;;;21.00;9.07;;;;;;;;;;5091667;28;20410;-81
2021/06/23 07:19:12;;;;;;;19.02;8.90;;;;;;;;;;5091677;28;20020;-84
2021/06/23 07:21:38;;;;;;;20.85;10.45;;;;;;;;;;5091103;28;20020;-85
2021/06/23 07:24:05;;;;;;;22.58;8.57;;;;;;;;;;5091744;28;20105;-84
2021/06/23 07:26:31;;;;;;;21.17;9.05;;;;;;;;;;5091613;28;20024;-85
2021/06/23 07:29:00;;;;;;;24.48;9.05;;;;;;;;;;5091289;28;20040;-84
2021/06/23 07:31:45;;;;;;;22.45;8.82;;;;;;;;;;5091340;28;20559;-84
2021/06/23 07:36:42;;;;;;;17.95;7.70;;;;;;;;;;5098337;27;20469;-83
2021/06/23 07:39:12;;;;;;;20.23;8.27;;;;;;;;;;5124976;27;20038;-85
2021/06/23 07:41:39;;;;;;;31.45;9.30;;;;;;;;;;5093361;28;20054;-84
2021/06/23 07:44:06;;;;;;;26.38;8.20;;;;;;;;;;5110931;28;20024;-84
2021/06/23 07:46:36;;;;;;;21.38;7.13;;;;;;;;;;5110291;28;20035;-83
2021/06/23 07:49:03;;;;;;;27.20;8.45;;;;;;;;;;5110685;28;20076;-86
2021/06/23 08:13:12;;;;;;;32.83;18.90;;;;;;;;;;5115561;28;20038;-84
2021/06/23 08:15:39;;;;;;;28.20;13.10;;;;;;;;;;5115553;28;20088;-83
2021/06/23 08:18:05;;;;;;;22.42;6.93;;;;;;;;;;5115428;28;20035;-86
2021/06/23 08:20:31;;;;;;;26.40;7.28;;;;;;;;;;5115248;28;20470;-85
2021/06/23 08:22:58;;;;;;;23.67;7.10;;;;;;;;;;5116435;28;20469;-84
2021/06/23 08:25:24;;;;;;;25.55;6.72;;;;;;;;;;5097462;28;20020;-85
2021/06/23 08:27:54;;;;;;;22.85;5.82;;;;;;;;;;5097583;28;20024;-86
2021/06/23 08:30:21;;;;;;;32.40;7.38;;;;;;;;;;5115554;28;20044;-88
2021/06/23 08:32:47;;;;;;;21.48;6.35;;;;;;;;;;5115827;28;20124;-80
2021/06/23 08:35:14;;;;;;;20.08;5.72;;;;;;;;;;5115654;28;20019;-79
2021/06/23 08:37:40;;;;;;;26.13;6.45;;;;;;;;;;5115806;28;20379;-84
2021/06/23 08:40:07;;;;;;;25.67;7.13;;;;;;;;;;5096859;28;20019;-83
2021/06/23 08:42:34;;;;;;;21.75;5.88;;;;;;;;;;5110989;28;20024;-87
2021/06/23 08:48:23;;;;;;;28.60;6.13;;;;;;;;;;5098961;28;20023;-88
2021/06/23 08:50:49;;;;;;;25.55;7.15;;;;;;;;;;5081062;28;20059;-85
2021/06/23 08:53:15;;;;;;;20.75;5.65;;;;;;;;;;5097610;28;20023;-88
2021/06/23 08:55:42;;;;;;;31.10;6.50;;;;;;;;;;5095812;28;20502;-86
2021/06/23 08:58:13;;;;;;;22.25;6.18;;;;;;;;;;5113799;28;20024;-86
2021/06/23 09:00:39;;;;;;;25.75;7.18;;;;;;;;;;5114288;28;20368;-88
2021/06/23 09:03:06;;;;;;;23.10;6.28;;;;;;;;;;5096470;28;20039;-88
2021/06/23 09:05:54;;;;;;;18.60;5.15;;;;;;;;;;5096423;28;20019;-84
2021/06/23 09:08:39;;;;;;;25.23;5.88;;;;;;;;;;5096144;28;20043;-82
2021/06/23 09:11:28;;;;;;;21.80;5.28;;;;;;;;;;5114352;28;20032;-87
2021/06/23 09:13:55;;;;;;;20.73;6.63;;;;;;;;;;5092655;28;20020;-87
2021/06/23 09:16:21;;;;;;;27.83;5.57;;;;;;;;;;5114488;28;20066;-85
2021/06/23 09:18:50;;;;;;;27.52;6.13;;;;;;;;;;5096944;27;20032;-88
2021/06/23 09:21:18;;;;;;;22.25;5.80;;;;;;;;;;5115245;28;20030;-87
2021/06/23 09:23:48;;;;;;;21.40;6.03;;;;;;;;;;5116239;27;20028;-87
2021/06/23 09:26:16;;;;;;;20.77;7.07;;;;;;;;;;5133985;27;20023;-82
2021/06/23 09:28:43;;;;;;;25.42;6.25;;;;;;;;;;5133184;27;20118;-86
2021/06/23 09:31:09;;;;;;;22.83;6.10;;;;;;;;;;5127585;27;20050;-85
2021/06/23 09:33:36;;;;;;;29.05;7.57;;;;;;;;;;5131424;27;20093;-89
2021/06/23 09:36:07;;;;;;;24.33;6.72;;;;;;;;;;5114842;27;20760;-83
2021/06/23 09:38:35;;;;;;;24.35;6.32;;;;;;;;;;5111147;28;20038;-85
2021/06/23 09:41:01;;;;;;;21.85;6.05;;;;;;;;;;5108051;28;20087;-80
2021/06/23 09:43:40;;;;;;;29.88;6.80;;;;;;;;;;5113583;28;20098;-82
2021/06/23 09:46:24;;;;;;;27.55;7.38;;;;;;;;;;5113696;28;20738;-85
2021/06/23 09:48:51;;;;;;;23.90;5.05;;;;;;;;;;5113910;28;20031;-83
2021/06/23 09:51:43;;;;;;;29.80;6.60;;;;;;;;;;5112946;28;20023;-83
2021/06/23 09:54:10;;;;;;;21.75;5.90;;;;;;;;;;5095629;28;20088;-84
2021/06/23 09:56:39;;;;;;;22.27;6.07;;;;;;;;;;5094732;28;20521;-84
2021/06/23 09:59:07;;;;;;;31.42;5.35;;;;;;;;;;5113086;28;20038;-87
2021/06/23 10:01:39;;;;;;;28.48;6.95;;;;;;;;;;5113414;28;20123;-84
2021/06/23 10:04:09;;;;;;;18.88;6.38;;;;;;;;;;5112271;28;20081;-82
2021/06/23 10:06:37;;;;;;;27.20;6.47;;;;;;;;;;5086521;28;20366;-85
2021/06/23 10:09:21;;;;;;;26.48;6.75;;;;;;;;;;5112266;28;20092;-88
2021/06/23 10:11:49;;;;;;;25.52;6.40;;;;;;;;;;5113055;28;20106;-84
2021/06/23 10:14:15;;;;;;;27.00;7.47;;;;;;;;;;5112597;28;20019;-83
2021/06/23 10:16:44;;;;;;;27.80;12.63;;;;;;;;;;5113190;28;20027;-85
2021/06/23 10:19:10;;;;;;;30.73;7.70;;;;;;;;;;5113680;27;20027;-87
2021/06/23 10:21:37;;;;;;;29.63;6.57;;;;;;;;;;5077954;28;20081;-85
2021/06/23 10:24:04;;;;;;;30.15;7.90;;;;;;;;;;5113471;27;20028;-85
2021/06/23 10:26:31;;;;;;;25.90;6.43;;;;;;;;;;5121958;27;20028;-81
2021/06/23 10:28:58;;;;;;;30.33;6.80;;;;;;;;;;5118692;27;20489;-84
2021/06/23 10:31:25;;;;;;;23.17;6.63;;;;;;;;;;5121203;27;20030;-83
2021/06/23 10:33:52;;;;;;;26.92;7.15;;;;;;;;;;5118130;27;20024;-84
2021/06/23 10:36:19;;;;;;;29.33;7.72;;;;;;;;;;5103640;27;20019;-87
2021/06/23 10:38:48;;;;;;;31.60;8.13;;;;;;;;;;5109854;27;20577;-86
2021/06/23 10:41:15;;;;;;;26.25;7.05;;;;;;;;;;5097674;27;20558;-83
2021/06/23 10:43:43;;;;;;;27.63;6.88;;;;;;;;;;5112810;27;20077;-82
2021/06/23 10:46:09;;;;;;;21.27;6.30;;;;;;;;;;5109442;28;20027;-81
2021/06/23 10:48:55;;;;;;;27.33;6.15;;;;;;;;;;5112570;28;20011;-86
2021/06/23 10:51:25;;;;;;;26.80;6.93;;;;;;;;;;5094272;28;20040;-87
2021/06/23 10:53:51;;;;;;;28.58;6.70;;;;;;;;;;5094435;28;20080;-84
2021/06/23 10:56:37;;;;;;;30.20;6.80;;;;;;;;;;5111996;28;20100;-84
2021/06/23 10:59:23;;;;;;;29.10;5.95;;;;;;;;;;5112280;28;20106;-85
2021/06/23 11:02:09;;;;;;;21.45;6.80;;;;;;;;;;5112423;28;20094;-88
2021/06/23 11:04:53;;;;;;;27.77;7.55;;;;;;;;;;5112611;28;20044;-86
2021/06/23 11:07:46;;;;;;;27.02;6.43;;;;;;;;;;5112178;28;20034;-88
2021/06/23 11:10:12;;;;;;;22.63;5.43;;;;;;;;;;5090292;28;20413;-85
2021/06/23 11:12:57;;;;;;;25.98;6.90;;;;;;;;;;5112465;28;20023;-89
2021/06/23 11:15:40;;;;;;;21.42;6.25;;;;;;;;;;5111865;28;20031;-83
2021/06/23 11:18:25;;;;;;;26.63;6.03;;;;;;;;;;5093399;28;20080;-86
2021/06/23 11:20:54;;;;;;;20.13;4.57;;;;;;;;;;5112230;28;20054;-86
2021/06/23 11:23:41;;;;;;;21.67;5.38;;;;;;;;;;5091758;28;20047;-85
2021/06/23 11:26:27;;;;;;;20.10;5.97;;;;;;;;;;5096875;28;20074;-78
2021/06/23 11:28:56;;;;;;;27.40;6.30;;;;;;;;;;5091171;28;20526;-85
2021/06/23 11:31:22;;;;;;;21.42;5.50;;;;;;;;;;5105040;28;20034;-84
2021/06/23 11:33:50;;;;;;;18.88;5.50;;;;;;;;;;5090788;28;20078;-87
2021/06/23 11:36:19;;;;;;;20.70;5.68;;;;;;;;;;5090578;28;20020;-84
2021/06/23 11:38:46;;;;;;;18.38;5.72;;;;;;;;;;5090248;28;20024;-84
2021/06/23 11:41:13;;;;;;;21.48;6.05;;;;;;;;;;5092323;28;20020;-87
2021/06/23 11:43:39;;;;;;;18.00;5.78;;;;;;;;;;5092390;28;20100;-86
2021/06/23 11:46:09;;;;;;;20.85;5.95;;;;;;;;;;5089477;28;20024;-85
2021/06/23 11:48:37;;;;;;;25.50;6.22;;;;;;;;;;5074274;28;20055;-84
2021/06/23 11:51:04;;;;;;;24.98;6.82;;;;;;;;;;5089220;28;20035;-78
2021/06/23 11:53:38;;;;;;;24.13;6.00;;;;;;;;;;5077247;28;20058;-88
2021/06/23 11:56:13;;;;;;;25.98;5.38;;;;;;;;;;5089113;28;20050;-81
2021/06/23 11:58:42;;;;;;;20.55;4.38;;;;;;;;;;5093135;28;20047;-88
2021/06/23 12:01:08;;;;;;;16.88;4.15;;;;;;;;;;5100732;28;20115;-83
2021/06/23 12:03:34;;;;;;;18.40;4.53;;;;;;;;;;5092461;28;20031;-77
2021/06/23 12:06:02;;;;;;;20.77;4.40;;;;;;;;;;5089267;28;20048;-81
2021/06/23 12:08:28;;;;;;;15.70;3.95;;;;;;;;;;5073337;28;20111;-87
2021/06/23 12:10:54;;;;;;;21.52;5.30;;;;;;;;;;5096281;28;20036;-86
2021/06/23 12:13:23;;;;;;;20.05;5.88;;;;;;;;;;5100101;28;20446;-88
2021/06/23 12:15:51;;;;;;;23.17;4.82;;;;;;;;;;5110975;28;20077;-87
2021/06/23 12:18:18;;;;;;;18.38;3.40;;;;;;;;;;5112500;28;20027;-81
2021/06/23 12:20:44;;;;;;;11.48;3.15;;;;;;;;;;5112437;28;20076;-81
2021/06/23 12:23:11;;;;;;;15.18;3.10;;;;;;;;;;5112259;28;20069;-82
2021/06/23 12:25:40;;;;;;;19.20;4.07;;;;;;;;;;5112283;28;20024;-85
2021/06/23 12:28:07;;;;;;;13.35;4.40;;;;;;;;;;5112176;28;20374;-83
2021/06/23 12:30:34;;;;;;;14.55;3.20;;;;;;;;;;5111861;28;20050;-81
2021/06/23 12:33:03;;;;;;;13.77;4.13;;;;;;;;;;5094406;28;20093;-84
2021/06/23 12:35:30;;;;;;;19.52;4.35;;;;;;;;;;5076839;28;20387;-79
2021/06/23 12:37:57;;;;;;;12.30;3.45;;;;;;;;;;5091846;28;20030;-83
2021/06/23 12:40:23;;;;;;;14.50;3.85;;;;;;;;;;5091789;28;20028;-79
2021/06/23 12:42:49;;;;;;;13.35;4.15;;;;;;;;;;5091879;28;20020;-81
2021/06/23 12:45:16;;;;;;;11.40;3.35;;;;;;;;;;5091651;28;20498;-79
2021/06/23 12:47:42;;;;;;;12.27;3.53;;;;;;;;;;5091705;28;20035;-84
2021/06/23 12:50:11;;;;;;;12.80;3.15;;;;;;;;;;5073932;28;20486;-84
2021/06/23 12:52:37;;;;;;;17.27;5.03;;;;;;;;;;5101883;28;20019;-82
2021/06/23 12:55:04;;;;;;;17.08;4.70;;;;;;;;;;5111867;28;20058;-86
2021/06/23 12:57:30;;;;;;;26.90;5.35;;;;;;;;;;5114847;28;20059;-88
2021/06/23 12:59:56;;;;;;;21.67;4.03;;;;;;;;;;5096911;28;20024;-86
2021/06/23 13:02:22;;;;;;;12.88;3.28;;;;;;;;;;5115810;28;20019;-79
2021/06/23 13:04:48;;;;;;;13.45;3.35;;;;;;;;;;5110100;28;20490;-86
2021/06/23 13:07:17;;;;;;;19.38;4.95;;;;;;;;;;5080479;28;20035;-87
2021/06/23 13:09:44;;;;;;;18.38;5.43;;;;;;;;;;5086347;28;20104;-87
2021/06/23 13:12:10;;;;;;;25.15;5.53;;;;;;;;;;5103494;28;20075;-83
2021/06/23 13:14:36;;;;;;;21.42;6.15;;;;;;;;;;5100714;28;20049;-86
2021/06/23 13:17:02;;;;;;;19.50;5.70;;;;;;;;;;5096982;28;20466;-85
2021/06/23 13:19:28;;;;;;;30.13;5.90;;;;;;;;;;5096759;28;20445;-86
2021/06/23 13:21:54;;;;;;;24.60;5.30;;;;;;;;;;5115063;28;20024;-81
2021/06/23 13:24:22;;;;;;;22.23;5.25;;;;;;;;;;5114509;28;20024;-83
2021/06/23 13:26:48;;;;;;;19.58;4.93;;;;;;;;;;5114902;28;20024;-79
2021/06/23 13:29:17;;;;;;;25.30;6.10;;;;;;;;;;5115084;28;20424;-85
2021/06/23 13:31:43;;;;;;;26.35;6.03;;;;;;;;;;5100442;28;20364;-80
2021/06/23 13:34:10;;;;;;;26.10;5.82;;;;;;;;;;5094757;28;20752;-79
2021/06/23 13:36:37;;;;;;;20.77;5.75;;;;;;;;;;5094804;28;20449;-84
2021/06/23 13:39:04;;;;;;;22.27;5.75;;;;;;;;;;5094282;28;20036;-83
2021/06/23 13:41:30;;;;;;;21.50;6.00;;;;;;;;;;5094771;28;20059;-84
2021/06/23 13:43:57;;;;;;;20.60;5.60;;;;;;;;;;5094254;28;20112;-85
2021/06/23 13:46:23;;;;;;;25.20;5.43;;;;;;;;;;5094539;28;20099;-81
2021/06/23 13:48:49;;;;;;;23.48;5.93;;;;;;;;;;5094477;28;20095;-85
2021/06/23 13:51:15;;;;;;;21.48;6.50;;;;;;;;;;5076526;28;20467;-83
2021/06/23 13:53:41;;;;;;;25.50;6.63;;;;;;;;;;5094321;28;20437;-83
2021/06/23 13:56:07;;;;;;;24.08;5.93;;;;;;;;;;5094188;28;20031;-82
2021/06/23 13:58:33;;;;;;;24.20;6.75;;;;;;;;;;5094334;28;20496;-85
2021/06/23 14:01:00;;;;;;;27.00;6.90;;;;;;;;;;5094052;28;20036;-86
2021/06/23 14:03:26;;;;;;;22.80;6.10;;;;;;;;;;5076560;28;20024;-80
2021/06/23 14:05:54;;;;;;;23.00;5.65;;;;;;;;;;5094180;28;20027;-80
2021/06/23 14:08:20;;;;;;;20.08;5.45;;;;;;;;;;5093337;28;20483;-86
2021/06/23 14:10:47;;;;;;;24.40;5.95;;;;;;;;;;5074869;28;20036;-85
2021/06/23 14:13:13;;;;;;;22.05;6.05;;;;;;;;;;5093860;28;20099;-84
2021/06/23 14:15:39;;;;;;;19.88;6.43;;;;;;;;;;5093851;28;20032;-85
2021/06/23 14:18:06;;;;;;;18.60;6.40;;;;;;;;;;5075469;28;20486;-83
2021/06/23 14:20:32;;;;;;;20.70;5.53;;;;;;;;;;5075915;28;20039;-84
2021/06/23 14:22:58;;;;;;;19.00;5.65;;;;;;;;;;5093524;28;20379;-86
2021/06/23 14:25:25;;;;;;;25.50;6.55;;;;;;;;;;5093818;28;20056;-83
2021/06/23 14:27:52;;;;;;;23.55;6.13;;;;;;;;;;5093783;28;20055;-84
2021/06/23 14:30:27;;;;;;;31.02;6.35;;;;;;;;;;5075012;28;20047;-87
2021/06/23 14:32:54;;;;;;;19.50;5.85;;;;;;;;;;5093607;28;20027;-85
2021/06/23 14:35:21;;;;;;;22.67;5.82;;;;;;;;;;5093382;28;20020;-86
2021/06/23 14:37:47;;;;;;;30.23;6.93;;;;;;;;;;5093531;28;20012;-85
2021/06/23 14:40:14;;;;;;;20.15;6.18;;;;;;;;;;5085853;28;20527;-84
2021/06/23 14:42:40;;;;;;;18.20;5.70;;;;;;;;;;5113649;28;20055;-83
2021/06/23 14:45:07;;;;;;;25.42;8.00;;;;;;;;;;5108864;28;20466;-85
2021/06/23 14:47:33;;;;;;;25.23;7.40;;;;;;;;;;5113317;28;20027;-84
2021/06/23 14:49:59;;;;;;;22.58;5.53;;;;;;;;;;5113382;28;20051;-85
2021/06/23 14:52:25;;;;;;;22.63;6.45;;;;;;;;;;5111364;28;20024;-84
2021/06/23 14:54:51;;;;;;;22.67;5.97;;;;;;;;;;5113812;28;20023;-83
2021/06/23 14:57:17;;;;;;;24.15;6.45;;;;;;;;;;5113404;28;20485;-83
2021/06/23 14:59:43;;;;;;;19.75;6.15;;;;;;;;;;5113355;28;20179;-84
2021/06/23 15:02:10;;;;;;;19.70;5.70;;;;;;;;;;5113415;28;20482;-85